Rhinelander, WI

11:14 PM CDT en Abril 24, 2015 (GMT -0500)
Rhinelander-Oneida County | | Change Station
CLOSE
Current Station
Aeropuerto
Location: Rhinelander,
Altura: 1624 ft
Estaciones meteorológicas cercanas

Alt 1624 ft 45.63 °N, 89.48 °W | Updated 21 minutes ago

Nublado
Nublado
40 ° F
Sensación térmica 36 ° F
N
6
Viento Variable Viento desde ESE

Hoy
Alta -- | Baja -- ° F
--% Posibilidad de precipitaciones
Ayer
Alta -- | Baja -- ° F
Precip. -- pul
5:57 AM 7:55 PM
Creciente, 42% visible
Presión 30.00 pul
Visibilidad 10.0 Millas
Nubes Baja 4500 ft
Nublado 7000 ft
Vientos helados 36 ° F
Punto de rocío 29 ° F
Humedad 65%
Precipitaciones 0.00 pul
Espesor de la nieve No disponible.
UV 0 de una escala de 12
Polen 8.80 de una escala de 12
Calidad del aire No disponible.
Flu Activity Local Activity
METAR KRHI 250353Z AUTO 12005KT 10SM FEW045 OVC070 04/M02 A2996 RMK AO2 SLP157 T00441017

More Conditions Fewer Conditions

Presión 30.00 pul
Visibilidad 10.0 Millas
Nubes Baja 4500 ft
Nublado 7000 ft
Vientos helados 36 ° F
Punto de rocío 29 ° F
Humedad 65%
Precipitaciones 0.00 pul
Espesor de la nieve No disponible.
UV 0 de una escala de 12
Polen 8.80 de una escala de 12
Calidad del aire No disponible.
Flu Activity Local Activity
METAR KRHI 250353Z AUTO 12005KT 10SM FEW045 OVC070 04/M02 A2996 RMK AO2 SLP157 T00441017

More Conditions Fewer Conditions

10-Day Weather Forecast

Almanac

Astronomía

Apr. 24, 2015 Salida Puesta
Hora real
Crepúsculo civil
Crepúsculo náutico
Crepúsculo astronómico
Luna
Horas de luz
Horas de luz
Tomorrow will be .
, % of the Moon is Illuminated

Extremos de hoy

Máximos del estado Bajos del estado

Community

WunderPhotos

Upload Photos

1,816,601 ¡fotos cargadas!

WunderBlogs® & News

Nearby

Calidad del aire

  Calidad del aire Índice AQ Contaminante
Not available.

Grosos de nieve

Estación Profundido Altura

Actividad de terremotos

Ciudad Distance Mag. Tiempo y dato
Magnitud mínima muestra es 2,5.

Temperaturas de aguas costeras

Lugar Temperatura

Stations

Estaciones meteorológicas cercanas

Ubicación de la estación Temp. Vientos helados Punto de rocío Humedad Viento Precip. Alt Actualizado Tipo